createdAt,value
2017-08-01T00:00:28.502Z,58.91
2017-08-01T00:02:56.863Z,58.38
2017-08-01T00:05:25.198Z,58.28
2017-08-01T00:07:53.963Z,58.64
2017-08-01T00:10:22.313Z,58.19
2017-08-01T00:12:51.437Z,59.07
2017-08-01T00:15:20.376Z,58.94
2017-08-01T00:17:48.701Z,58.69
2017-08-01T00:20:17.039Z,58.27
2017-08-01T00:22:45.701Z,58.88
2017-08-01T00:25:14.038Z,58.44
2017-08-01T00:27:42.377Z,57.83
2017-08-01T00:30:11.026Z,57.08
2017-08-01T00:32:39.368Z,57.92
2017-08-01T00:35:07.729Z,56.29
2017-08-01T00:37:37.396Z,57.37
2017-08-01T00:40:05.747Z,57.94
2017-08-01T00:42:34.086Z,58.26
2017-08-01T00:45:02.839Z,58.20
2017-08-01T00:47:31.170Z,58.67
2017-08-01T00:49:59.498Z,58.42
2017-08-01T00:52:28.142Z,58.51
2017-08-01T00:54:57.257Z,58.48
2017-08-01T00:57:25.568Z,58.98
2017-08-01T00:59:54.529Z,59.79
2017-08-01T01:02:22.898Z,59.56
2017-08-01T01:04:51.227Z,59.97
2017-08-01T01:07:19.871Z,59.98
2017-08-01T01:09:48.215Z,59.61
2017-08-01T01:12:16.558Z,59.71
2017-08-01T01:14:45.416Z,59.63
2017-08-01T01:17:13.804Z,59.39
2017-08-01T01:19:42.198Z,59.47
2017-08-01T01:22:10.929Z,59.22
2017-08-01T01:24:39.328Z,58.53
2017-08-01T01:27:07.671Z,57.67
2017-08-01T01:29:36.919Z,58.38
2017-08-01T01:32:05.267Z,58.14
2017-08-01T01:34:33.602Z,57.91
2017-08-01T01:37:02.255Z,57.96
2017-08-01T01:39:30.611Z,58.22
2017-08-01T01:41:58.970Z,57.16
2017-08-01T01:44:28.356Z,57.06
2017-08-01T01:46:56.713Z,57.07
2017-08-01T01:49:25.069Z,56.56
2017-08-01T01:51:54.704Z,56.91
2017-08-01T01:54:23.064Z,57.05
2017-08-01T01:56:51.402Z,57.65
2017-08-01T01:59:20.339Z,57.46
2017-08-01T02:01:48.695Z,57.32
2017-08-01T02:04:17.803Z,58.08
2017-08-01T02:06:47.427Z,57.38
2017-08-01T02:09:15.781Z,58.98
2017-08-01T02:11:44.905Z,59.32
2017-08-01T02:14:13.532Z,59.66
2017-08-01T02:16:41.881Z,59.66
2017-08-01T02:19:10.223Z,59.78
2017-08-01T02:21:38.852Z,59.29
2017-08-01T02:24:07.208Z,58.40
2017-08-01T02:26:35.586Z,58.09
2017-08-01T02:29:04.579Z,58.93
2017-08-01T02:31:33.087Z,58.76
2017-08-01T02:34:01.419Z,57.49
2017-08-01T02:36:30.231Z,57.99
2017-08-01T02:38:58.583Z,58.67
2017-08-01T02:41:27.744Z,57.38
2017-08-01T02:43:56.491Z,56.71
2017-08-01T02:46:24.843Z,58.03
2017-08-01T02:48:53.959Z,58.30
2017-08-01T02:51:23.538Z,57.97
2017-08-01T02:53:51.896Z,57.61
2017-08-01T02:56:20.239Z,57.11
2017-08-01T02:58:49.025Z,55.82
2017-08-01T03:01:17.408Z,56.12
2017-08-01T03:03:45.736Z,56.59
2017-08-01T03:06:14.467Z,56.92
2017-08-01T03:08:42.801Z,56.50
2017-08-01T03:11:11.152Z,56.40
2017-08-01T03:13:40.106Z,56.32
2017-08-01T03:16:08.449Z,56.79
2017-08-01T03:18:36.808Z,57.11
2017-08-01T03:21:05.562Z,57.08
2017-08-01T03:23:33.913Z,57.50
2017-08-01T03:26:03.023Z,57.57
2017-08-01T03:28:31.848Z,57.37
2017-08-01T03:31:00.224Z,56.81
2017-08-01T03:33:28.564Z,57.58
2017-08-01T03:35:57.464Z,57.77
2017-08-01T03:38:25.834Z,57.68
2017-08-01T03:40:54.961Z,57.88
2017-08-01T03:43:23.608Z,57.55
2017-08-01T03:45:51.929Z,57.57
2017-08-01T03:48:20.351Z,57.62
2017-08-01T03:50:49.205Z,58.64
2017-08-01T03:53:17.635Z,60.81
2017-08-01T03:55:46.000Z,62.52
2017-08-01T03:58:14.803Z,63.53
2017-08-01T04:00:43.186Z,63.80
2017-08-01T04:03:11.551Z,63.77
2017-08-01T04:05:40.451Z,64.12
2017-08-01T04:08:08.831Z,64.57
2017-08-01T04:10:37.314Z,65.52
2017-08-01T04:13:06.146Z,63.88
2017-08-01T04:15:34.554Z,64.04
2017-08-01T04:18:02.970Z,63.69
2017-08-01T04:20:32.673Z,63.36
2017-08-01T04:23:01.053Z,62.37
2017-08-01T04:25:29.441Z,62.67
2017-08-01T04:27:59.134Z,61.70
2017-08-01T04:30:27.529Z,60.61
2017-08-01T04:32:56.002Z,60.67
2017-08-01T04:35:24.788Z,61.83
2017-08-01T04:37:53.325Z,61.07
2017-08-01T04:40:21.660Z,59.92
2017-08-01T04:42:50.490Z,59.88
2017-08-01T04:45:18.925Z,59.90
2017-08-01T04:47:47.326Z,59.75
2017-08-01T04:50:16.087Z,59.20
2017-08-01T04:52:44.551Z,58.92
2017-08-01T04:55:12.945Z,59.43
2017-08-01T04:57:41.946Z,59.52
2017-08-01T05:00:10.384Z,59.01
2017-08-01T05:02:38.807Z,58.53
2017-08-01T05:05:07.646Z,57.56
2017-08-01T05:07:36.048Z,56.89
2017-08-01T05:10:04.409Z,56.71
2017-08-01T05:12:33.367Z,56.93
2017-08-01T05:15:01.808Z,56.66
2017-08-01T05:17:30.208Z,56.63
2017-08-01T05:19:59.101Z,56.82
2017-08-01T05:22:27.467Z,57.41
2017-08-01T05:24:55.805Z,57.51
2017-08-01T05:27:24.693Z,57.46
2017-08-01T05:29:53.044Z,57.47
2017-08-01T05:32:22.157Z,58.73
2017-08-01T05:34:50.942Z,58.93
2017-08-01T05:37:19.271Z,58.88
2017-08-01T05:39:47.594Z,58.95
2017-08-01T05:42:16.397Z,58.94
2017-08-01T05:44:44.722Z,58.84
2017-08-01T05:47:13.064Z,58.89
2017-08-01T05:49:42.043Z,58.74
2017-08-01T05:52:10.388Z,58.71
2017-08-01T05:54:38.744Z,58.75
2017-08-01T05:57:07.367Z,59.16
2017-08-01T05:59:36.478Z,59.01
2017-08-01T06:02:04.825Z,58.41
2017-08-01T06:04:33.748Z,58.77
2017-08-01T06:07:02.092Z,58.26
2017-08-01T06:09:30.448Z,58.53
2017-08-01T06:11:59.400Z,58.82
2017-08-01T06:14:27.738Z,58.41
2017-08-01T06:16:56.079Z,57.99
2017-08-01T06:19:24.745Z,57.05
2017-08-01T06:21:53.095Z,56.41
2017-08-01T06:24:21.491Z,56.21
2017-08-01T06:26:50.916Z,56.31
2017-08-01T06:29:19.264Z,55.23
2017-08-01T06:31:48.389Z,55.49
2017-08-01T06:34:17.197Z,55.84
2017-08-01T06:36:45.531Z,55.81
2017-08-01T06:39:13.891Z,55.81
2017-08-01T06:41:42.631Z,55.31
2017-08-01T06:44:10.979Z,55.22
2017-08-01T06:46:40.095Z,53.97
2017-08-01T06:49:08.853Z,53.53
2017-08-01T06:51:37.193Z,52.49
2017-08-01T06:54:05.553Z,51.28
2017-08-01T06:56:34.364Z,51.28
2017-08-01T06:59:02.739Z,51.63
2017-08-01T07:01:31.080Z,51.46
2017-08-01T07:03:59.966Z,51.65
2017-08-01T07:06:28.320Z,51.16
2017-08-01T07:08:56.691Z,50.54
2017-08-01T07:11:25.520Z,49.39
2017-08-01T07:13:54.632Z,49.26
2017-08-01T07:16:22.989Z,49.59
2017-08-01T07:18:52.106Z,49.91
2017-08-01T07:21:20.429Z,49.89
2017-08-01T07:23:48.789Z,49.58
2017-08-01T07:26:17.390Z,48.89
2017-08-01T07:28:45.727Z,48.71
2017-08-01T07:31:14.074Z,49.26
2017-08-01T07:33:42.722Z,48.17
2017-08-01T07:36:11.052Z,49.19
2017-08-01T07:38:39.432Z,49.32
2017-08-01T07:41:08.442Z,49.03
2017-08-01T07:43:36.806Z,48.14
2017-08-01T07:46:05.143Z,48.01
2017-08-01T07:48:33.899Z,47.10
2017-08-01T07:51:02.262Z,46.54
2017-08-01T07:53:30.608Z,44.68
2017-08-01T07:55:59.530Z,45.81
2017-08-01T07:58:27.858Z,45.77
2017-08-01T08:00:56.178Z,46.35
2017-08-01T08:03:24.967Z,46.32
2017-08-01T08:05:53.297Z,44.68
2017-08-01T08:08:21.620Z,44.67
2017-08-01T08:10:50.424Z,45.29
2017-08-01T08:13:18.773Z,45.42
2017-08-01T08:15:47.890Z,45.18
2017-08-01T08:18:16.673Z,46.12
2017-08-01T08:20:45.025Z,46.50
2017-08-01T08:23:13.379Z,47.41
2017-08-01T08:25:42.151Z,46.80
2017-08-01T08:28:10.511Z,45.33
2017-08-01T08:30:38.860Z,44.53
2017-08-01T08:33:07.826Z,45.72
2017-08-01T08:35:36.164Z,46.45
2017-08-01T08:38:04.500Z,44.59
2017-08-01T08:40:33.105Z,44.83
2017-08-01T08:43:02.236Z,43.53
2017-08-01T08:45:30.596Z,41.89
2017-08-01T08:47:59.717Z,42.65
2017-08-01T08:50:28.103Z,42.34
2017-08-01T08:52:56.499Z,41.97
2017-08-01T08:55:25.342Z,42.67
2017-08-01T08:57:53.690Z,42.46
2017-08-01T09:00:22.026Z,41.43
2017-08-01T09:02:50.639Z,42.46
2017-08-01T09:05:19.008Z,43.55
2017-08-01T09:07:47.358Z,43.60
2017-08-01T09:10:16.448Z,44.33
2017-08-01T09:12:44.779Z,43.17
2017-08-01T09:15:13.106Z,43.13
2017-08-01T09:17:41.756Z,43.54
2017-08-01T09:20:10.105Z,43.90
2017-08-01T09:22:38.437Z,42.08
2017-08-01T09:25:07.111Z,42.15
2017-08-01T09:27:35.460Z,42.58
2017-08-01T09:30:03.797Z,42.31
2017-08-01T09:32:32.824Z,43.18
2017-08-01T09:35:01.472Z,41.89
2017-08-01T09:37:29.942Z,40.69
2017-08-01T09:39:59.475Z,40.07
2017-08-01T09:42:27.820Z,40.73
2017-08-01T09:44:56.208Z,42.03
2017-08-01T09:47:24.846Z,43.04
2017-08-01T09:49:53.176Z,43.34
2017-08-01T09:52:21.502Z,43.36
2017-08-01T09:54:50.566Z,42.90
2017-08-01T09:57:18.973Z,42.74
2017-08-01T09:59:47.334Z,42.63
2017-08-01T10:02:15.930Z,43.11
2017-08-01T10:04:44.252Z,45.45
2017-08-01T10:07:12.597Z,45.36
2017-08-01T10:09:41.467Z,44.08
2017-08-01T10:12:09.809Z,45.54
2017-08-01T10:14:38.143Z,45.91
2017-08-01T10:17:06.997Z,44.99
2017-08-01T10:19:35.343Z,43.44
2017-08-01T10:22:03.691Z,43.70
2017-08-01T10:24:32.331Z,42.28
2017-08-01T10:27:01.564Z,41.62
2017-08-01T10:29:29.889Z,41.45
2017-08-01T10:31:58.778Z,40.06
2017-08-01T10:34:27.122Z,39.90
2017-08-01T10:36:55.840Z,40.47
2017-08-01T10:39:24.855Z,41.34
2017-08-01T10:41:53.208Z,41.71
2017-08-01T10:44:21.565Z,43.48
2017-08-01T10:46:50.235Z,43.61
2017-08-01T10:49:18.583Z,44.83
2017-08-01T10:51:46.934Z,45.63
2017-08-01T10:54:15.598Z,47.46
2017-08-01T10:56:43.925Z,48.90
2017-08-01T10:59:12.319Z,49.76
2017-08-01T11:01:41.160Z,49.46
2017-08-01T11:04:09.511Z,49.60
2017-08-01T11:06:37.938Z,49.87
2017-08-01T11:09:06.599Z,51.16
2017-08-01T11:11:34.969Z,50.84
2017-08-01T11:14:03.361Z,51.71
2017-08-01T11:16:32.238Z,52.03
2017-08-01T11:19:00.612Z,52.22
2017-08-01T11:21:29.047Z,53.40
2017-08-01T11:23:58.040Z,53.59
2017-08-01T11:26:26.394Z,53.73
2017-08-01T11:28:54.750Z,54.97
2017-08-01T11:31:23.606Z,55.08
2017-08-01T11:33:51.959Z,53.86
2017-08-01T11:36:20.289Z,52.75
2017-08-01T11:38:48.998Z,53.16
2017-08-01T11:41:17.396Z,52.80
2017-08-01T11:43:45.744Z,52.52
2017-08-01T11:46:14.767Z,53.56
2017-08-01T11:48:43.172Z,53.89
2017-08-01T11:51:11.608Z,53.63
2017-08-01T11:53:40.608Z,53.09
2017-08-01T11:56:09.796Z,54.42
2017-08-01T11:58:38.216Z,53.46
2017-08-01T12:01:07.243Z,53.56
2017-08-01T12:03:35.621Z,54.13
2017-08-01T12:06:04.114Z,55.06
2017-08-01T12:08:33.067Z,55.20
2017-08-01T12:11:01.457Z,56.12
2017-08-01T12:13:29.802Z,57.00
2017-08-01T12:15:58.478Z,57.46
2017-08-01T12:18:26.825Z,56.72
2017-08-01T12:20:55.226Z,56.39
2017-08-01T12:23:24.023Z,56.25
2017-08-01T12:25:52.422Z,55.88
2017-08-01T12:28:20.782Z,55.08
2017-08-01T12:30:50.382Z,54.08
2017-08-01T12:33:18.759Z,53.75
2017-08-01T12:35:47.132Z,55.33
2017-08-01T12:38:15.749Z,56.52
2017-08-01T12:40:44.886Z,55.46
2017-08-01T12:43:13.267Z,56.81
2017-08-01T12:45:41.987Z,56.56
2017-08-01T12:48:10.331Z,56.32
2017-08-01T12:50:38.674Z,56.49
2017-08-01T12:53:07.487Z,56.87
2017-08-01T12:55:35.830Z,55.79
2017-08-01T12:58:04.173Z,57.69
2017-08-01T13:00:32.821Z,57.66
2017-08-01T13:03:01.165Z,57.77
2017-08-01T13:05:29.535Z,56.59
2017-08-01T13:07:58.264Z,56.03
2017-08-01T13:10:26.602Z,55.19
2017-08-01T13:12:54.925Z,55.43
2017-08-01T13:15:24.122Z,56.59
2017-08-01T13:17:52.462Z,54.43
2017-08-01T13:20:20.831Z,54.15
2017-08-01T13:22:49.580Z,52.84
2017-08-01T13:25:17.946Z,52.45
2017-08-01T13:27:46.288Z,56.00
2017-08-01T13:30:15.145Z,54.71
2017-08-01T13:32:43.492Z,53.30
2017-08-01T13:35:11.842Z,51.95
2017-08-01T13:37:40.618Z,49.18
2017-08-01T13:40:08.973Z,49.91
2017-08-01T13:42:37.336Z,50.16
2017-08-01T13:45:06.142Z,50.94
2017-08-01T13:47:34.501Z,52.55
2017-08-01T13:50:02.837Z,51.35
2017-08-01T13:52:31.747Z,51.77
2017-08-01T13:55:00.095Z,53.23
2017-08-01T13:57:28.448Z,54.06
2017-08-01T13:59:57.658Z,54.34
2017-08-01T14:02:26.015Z,53.39
2017-08-01T14:04:54.353Z,53.79
2017-08-01T14:07:23.255Z,55.16
2017-08-01T14:09:51.592Z,54.83
2017-08-01T14:12:19.938Z,55.23
2017-08-01T14:14:48.704Z,55.85
2017-08-01T14:17:17.051Z,56.08
2017-08-01T14:19:45.410Z,55.25
2017-08-01T14:22:14.342Z,54.72
2017-08-01T14:24:42.685Z,55.18
2017-08-01T14:27:11.029Z,55.84
2017-08-01T14:29:39.687Z,55.55
2017-08-01T14:32:08.039Z,55.70
2017-08-01T14:34:36.395Z,55.94
2017-08-01T14:37:05.071Z,57.90
2017-08-01T14:39:33.443Z,58.12
2017-08-01T14:42:01.822Z,59.43
2017-08-01T14:44:30.554Z,61.06
2017-08-01T14:46:58.902Z,63.27
2017-08-01T14:49:27.289Z,66.01
2017-08-01T14:51:55.930Z,66.78
2017-08-01T14:54:24.315Z,66.46
2017-08-01T14:56:52.651Z,65.39
2017-08-01T14:59:21.370Z,65.44
2017-08-01T15:01:49.714Z,65.85
2017-08-01T15:04:18.073Z,67.69
2017-08-01T15:06:46.954Z,67.42
2017-08-01T15:09:15.300Z,66.46
2017-08-01T15:11:43.707Z,67.09
2017-08-01T15:14:12.470Z,67.46
2017-08-01T15:16:40.805Z,69.28
2017-08-01T15:19:09.149Z,69.64
2017-08-01T15:21:37.919Z,71.60
2017-08-01T15:24:06.304Z,74.21
2017-08-01T15:26:34.662Z,77.27
2017-08-01T15:29:03.394Z,76.86
2017-08-01T15:31:31.735Z,76.64
2017-08-01T15:34:00.194Z,76.11
2017-08-01T15:36:28.885Z,75.00
2017-08-01T15:38:58.010Z,72.75
2017-08-01T15:41:26.377Z,72.12
2017-08-01T15:43:55.064Z,71.63
2017-08-01T15:46:23.402Z,72.04
2017-08-01T15:48:51.763Z,72.01
2017-08-01T15:51:20.703Z,73.12
2017-08-01T15:53:49.049Z,72.48
2017-08-01T15:56:23.295Z,72.06
2017-08-01T15:58:51.709Z,71.08
2017-08-01T16:01:20.073Z,70.60
2017-08-01T16:03:48.918Z,71.32
2017-08-01T16:06:17.274Z,72.40
2017-08-01T16:08:45.645Z,72.94
2017-08-01T16:11:14.558Z,72.10
2017-08-01T16:13:42.929Z,71.99
2017-08-01T16:16:11.277Z,71.93
2017-08-01T16:18:40.304Z,71.68
2017-08-01T16:21:08.667Z,72.02
2017-08-01T16:23:37.012Z,71.64
2017-08-01T16:26:06.677Z,71.82
2017-08-01T16:28:35.006Z,73.08
2017-08-01T16:31:03.322Z,72.86
2017-08-01T16:33:32.116Z,74.55
2017-08-01T16:36:00.488Z,75.09
2017-08-01T16:38:28.858Z,74.61
2017-08-01T16:40:57.597Z,74.56
2017-08-01T16:43:26.705Z,74.09
2017-08-01T16:45:55.822Z,74.26
2017-08-01T16:48:24.588Z,74.55
2017-08-01T16:50:52.935Z,74.82
2017-08-01T16:53:21.283Z,73.29
2017-08-01T16:55:50.262Z,72.10
2017-08-01T16:58:18.597Z,73.31
2017-08-01T17:00:46.958Z,75.24
2017-08-01T17:03:15.702Z,75.32
2017-08-01T17:05:44.061Z,75.21
2017-08-01T17:08:13.174Z,74.48
2017-08-01T17:10:41.970Z,74.47
2017-08-01T17:13:10.305Z,74.39
2017-08-01T17:15:38.664Z,74.38
2017-08-01T17:18:07.476Z,74.37
2017-08-01T17:20:35.815Z,74.68
2017-08-01T17:23:04.171Z,74.67
2017-08-01T17:25:32.808Z,74.61
2017-08-01T17:28:01.167Z,74.54
2017-08-01T17:30:29.502Z,74.38
2017-08-01T17:32:58.949Z,74.22
2017-08-01T17:35:27.294Z,73.90
2017-08-01T17:37:55.655Z,74.68
2017-08-01T17:40:24.466Z,75.70
2017-08-01T17:42:52.819Z,78.27
2017-08-01T17:45:21.200Z,79.42
2017-08-01T17:49:09.904Z,76.80
2017-08-01T17:51:38.282Z,75.72
2017-08-01T17:54:06.640Z,74.24
2017-08-01T17:56:35.485Z,73.69
2017-08-01T17:59:03.834Z,73.96
2017-08-01T18:01:32.213Z,73.77
2017-08-01T18:04:01.001Z,72.76
2017-08-01T18:06:29.359Z,72.45
2017-08-01T18:08:57.713Z,72.66
2017-08-01T18:11:26.413Z,71.91
2017-08-01T18:13:54.779Z,70.59
2017-08-01T18:16:23.143Z,71.08
2017-08-01T18:18:51.876Z,70.62
2017-08-01T18:21:20.285Z,69.33
2017-08-01T18:23:49.831Z,69.26
2017-08-01T18:26:18.581Z,69.40
2017-08-01T18:28:46.987Z,69.52
2017-08-01T18:31:15.356Z,69.59
2017-08-01T18:33:44.021Z,70.24
2017-08-01T18:36:12.383Z,70.46
2017-08-01T18:38:40.731Z,70.05
2017-08-01T18:41:09.618Z,69.81
2017-08-01T18:43:37.989Z,70.10
2017-08-01T18:46:06.367Z,69.71
2017-08-01T18:48:35.355Z,69.50
2017-08-01T18:51:04.623Z,69.54
2017-08-01T18:53:33.089Z,68.81
2017-08-01T18:56:01.834Z,69.57
2017-08-01T18:58:31.055Z,70.32
2017-08-01T19:00:59.417Z,70.70
2017-08-01T19:03:28.393Z,70.75
2017-08-01T19:05:56.810Z,70.28
2017-08-01T19:08:25.154Z,70.44
2017-08-01T19:10:53.893Z,70.63
2017-08-01T19:13:22.248Z,70.60
2017-08-01T19:15:50.640Z,70.72
2017-08-01T19:18:19.541Z,70.96
2017-08-01T19:20:47.909Z,71.61
2017-08-01T19:23:16.268Z,72.15
2017-08-01T19:25:45.235Z,71.52
2017-08-01T19:30:48.534Z,71.38
2017-08-01T19:33:16.916Z,71.78
2017-08-01T19:35:45.282Z,71.73
2017-08-01T19:38:13.970Z,71.84
2017-08-01T19:40:42.366Z,71.86
2017-08-01T19:43:10.721Z,71.10
2017-08-01T19:45:39.410Z,71.73
2017-08-01T19:48:07.745Z,71.67
2017-08-01T19:50:36.098Z,72.32
2017-08-01T19:53:04.793Z,72.05
2017-08-01T19:55:33.177Z,71.83
2017-08-01T19:58:02.292Z,71.11
2017-08-01T20:00:30.980Z,71.41
2017-08-01T20:02:59.320Z,70.63
2017-08-01T20:05:27.688Z,71.35
2017-08-01T20:07:56.761Z,70.80
2017-08-01T20:10:25.245Z,70.18
2017-08-01T20:12:53.592Z,70.89
2017-08-01T20:15:22.400Z,69.89
2017-08-01T20:17:51.657Z,70.59
2017-08-01T20:20:20.014Z,70.81
2017-08-01T20:22:48.882Z,70.05
2017-08-01T20:25:17.213Z,70.44
2017-08-01T20:27:45.562Z,70.42
2017-08-01T20:30:15.131Z,71.23
2017-08-01T20:32:43.486Z,71.15
2017-08-01T20:35:11.846Z,70.60
2017-08-01T20:37:40.618Z,70.76
2017-08-01T20:40:09.002Z,70.94
2017-08-01T20:42:37.356Z,71.14
2017-08-01T20:45:06.021Z,70.80
2017-08-01T20:47:34.395Z,70.44
2017-08-01T20:50:02.785Z,69.40
2017-08-01T20:52:31.609Z,69.74
2017-08-01T20:54:59.972Z,69.99
2017-08-01T20:57:28.324Z,69.86
2017-08-01T20:59:57.098Z,69.81
2017-08-01T21:02:25.447Z,70.17
2017-08-01T21:04:53.852Z,70.60
2017-08-01T21:07:22.540Z,70.78
2017-08-01T21:09:50.901Z,69.95
2017-08-01T21:12:19.271Z,70.21
2017-08-01T21:14:47.971Z,70.29
2017-08-01T21:17:16.351Z,71.16
2017-08-01T21:19:45.458Z,71.30
2017-08-01T21:22:14.946Z,71.09
2017-08-01T21:24:43.296Z,71.92
2017-08-01T21:27:11.660Z,71.52
2017-08-01T21:29:40.535Z,71.98
2017-08-01T21:32:08.902Z,72.41
2017-08-01T21:34:37.250Z,72.59
2017-08-01T21:37:06.386Z,73.06
2017-08-01T21:39:34.754Z,72.79
2017-08-01T21:42:03.867Z,72.81
2017-08-01T21:44:32.652Z,71.79
2017-08-01T21:47:00.990Z,71.73
2017-08-01T21:49:29.344Z,71.46
2017-08-01T21:51:58.108Z,71.45
2017-08-01T21:54:26.443Z,71.19
2017-08-01T21:56:55.575Z,71.15
2017-08-01T21:59:24.253Z,71.72
2017-08-01T22:01:52.618Z,72.14
2017-08-01T22:04:20.987Z,72.63
2017-08-01T22:06:49.684Z,71.65
2017-08-01T22:09:18.033Z,71.62
2017-08-01T22:11:46.390Z,71.56
2017-08-01T22:14:15.008Z,71.16
2017-08-01T22:16:43.370Z,71.14
2017-08-01T22:19:11.701Z,70.49
2017-08-01T22:21:40.374Z,70.76
2017-08-01T22:24:09.482Z,70.26
2017-08-01T22:26:37.826Z,70.60
2017-08-01T22:29:06.496Z,70.07
2017-08-01T22:31:34.868Z,70.37
2017-08-01T22:34:03.227Z,70.35
2017-08-01T22:36:32.218Z,69.59
2017-08-01T22:39:00.569Z,69.24
2017-08-01T22:41:29.696Z,70.12
2017-08-01T22:43:58.510Z,69.55
2017-08-01T22:46:26.860Z,69.41
2017-08-01T22:48:55.238Z,69.69
2017-08-01T22:51:24.124Z,69.63
2017-08-01T22:53:52.471Z,69.69
2017-08-01T22:56:21.568Z,69.85
2017-08-01T22:58:51.199Z,69.95
2017-08-01T23:01:19.574Z,69.38
2017-08-01T23:03:47.926Z,69.21
2017-08-01T23:06:16.849Z,69.14
2017-08-01T23:08:45.192Z,68.54
2017-08-01T23:11:13.530Z,69.29
2017-08-01T23:13:42.262Z,68.81
2017-08-01T23:16:10.605Z,69.39
2017-08-01T23:18:38.969Z,69.68
2017-08-01T23:21:07.738Z,69.73
2017-08-01T23:23:36.087Z,69.59
2017-08-01T23:26:04.438Z,69.37
2017-08-01T23:28:33.164Z,69.50
2017-08-01T23:31:01.548Z,69.85
2017-08-01T23:33:29.892Z,69.16
2017-08-01T23:35:58.616Z,70.25
2017-08-01T23:38:26.969Z,69.74
2017-08-01T23:40:55.328Z,69.64
2017-08-01T23:43:24.278Z,70.45
2017-08-01T23:45:52.621Z,70.28
2017-08-01T23:48:20.966Z,71.21
2017-08-01T23:50:49.919Z,72.24
2017-08-01T23:53:18.278Z,72.58
2017-08-01T23:55:46.662Z,73.24
2017-08-01T23:58:15.295Z,73.02
